sensor_id;sensor_type;location;lat;lon;timestamp;P1;durP1;ratioP1;P2;durP2;ratioP2
9536;SDS011;4807;48.024;11.726;2022-07-23T00:02:47;11.73;;;11.03;;
9536;SDS011;4807;48.024;11.726;2022-07-23T00:05:56;12.03;;;11.43;;
9536;SDS011;4807;48.024;11.726;2022-07-23T00:09:04;12.33;;;11.50;;
9536;SDS011;4807;48.024;11.726;2022-07-23T00:12:14;11.67;;;10.63;;
9536;SDS011;4807;48.024;11.726;2022-07-23T00:15:22;11.77;;;11.17;;
9536;SDS011;4807;48.024;11.726;2022-07-23T00:18:31;10.77;;;10.17;;
9536;SDS011;4807;48.024;11.726;2022-07-23T00:21:39;9.63;;;9.13;;
9536;SDS011;4807;48.024;11.726;2022-07-23T00:24:48;9.40;;;8.90;;
9536;SDS011;4807;48.024;11.726;2022-07-23T00:28:18;9.80;;;9.30;;
9536;SDS011;4807;48.024;11.726;2022-07-23T00:31:26;10.30;;;9.33;;
9536;SDS011;4807;48.024;11.726;2022-07-23T00:34:35;11.90;;;11.10;;
9536;SDS011;4807;48.024;11.726;2022-07-23T00:37:43;11.37;;;10.77;;
9536;SDS011;4807;48.024;11.726;2022-07-23T00:40:52;11.47;;;10.67;;
9536;SDS011;4807;48.024;11.726;2022-07-23T00:44:18;11.70;;;10.93;;
9536;SDS011;4807;48.024;11.726;2022-07-23T00:47:28;11.77;;;11.17;;
9536;SDS011;4807;48.024;11.726;2022-07-23T00:50:37;12.83;;;11.93;;
9536;SDS011;4807;48.024;11.726;2022-07-23T00:53:45;13.33;;;12.63;;
9536;SDS011;4807;48.024;11.726;2022-07-23T00:56:56;15.33;;;14.43;;
9536;SDS011;4807;48.024;11.726;2022-07-23T01:00:08;12.27;;;11.50;;
9536;SDS011;4807;48.024;11.726;2022-07-23T01:03:18;14.30;;;13.50;;
9536;SDS011;4807;48.024;11.726;2022-07-23T01:06:28;13.93;;;13.23;;
9536;SDS011;4807;48.024;11.726;2022-07-23T01:09:40;13.50;;;12.70;;
9536;SDS011;4807;48.024;11.726;2022-07-23T01:12:50;13.97;;;13.17;;
9536;SDS011;4807;48.024;11.726;2022-07-23T01:16:00;14.60;;;13.87;;
9536;SDS011;4807;48.024;11.726;2022-07-23T01:19:09;13.20;;;12.50;;
9536;SDS011;4807;48.024;11.726;2022-07-23T01:22:19;15.80;;;14.70;;
9536;SDS011;4807;48.024;11.726;2022-07-23T01:25:29;16.60;;;15.80;;
9536;SDS011;4807;48.024;11.726;2022-07-23T01:28:41;15.13;;;14.33;;
9536;SDS011;4807;48.024;11.726;2022-07-23T01:31:49;16.73;;;15.83;;
9536;SDS011;4807;48.024;11.726;2022-07-23T01:34:58;1999.90;;;999.90;;
9536;SDS011;4807;48.024;11.726;2022-07-23T01:38:06;1999.90;;;999.90;;
9536;SDS011;4807;48.024;11.726;2022-07-23T01:41:19;5.67;;;4.77;;
9536;SDS011;4807;48.024;11.726;2022-07-23T01:44:28;6.90;;;3.90;;
9536;SDS011;4807;48.024;11.726;2022-07-23T01:47:36;9.20;;;3.07;;
9536;SDS011;4807;48.024;11.726;2022-07-23T01:50:45;3.30;;;2.37;;
9536;SDS011;4807;48.024;11.726;2022-07-23T01:54:05;5.50;;;1.60;;
9536;SDS011;4807;48.024;11.726;2022-07-23T01:57:15;2.67;;;2.10;;
9536;SDS011;4807;48.024;11.726;2022-07-23T02:00:24;2.30;;;2.03;;
9536;SDS011;4807;48.024;11.726;2022-07-23T02:03:32;2.73;;;2.53;;
9536;SDS011;4807;48.024;11.726;2022-07-23T02:06:41;3.23;;;2.57;;
9536;SDS011;4807;48.024;11.726;2022-07-23T02:09:49;3.53;;;3.03;;
9536;SDS011;4807;48.024;11.726;2022-07-23T02:12:59;3.53;;;3.20;;
9536;SDS011;4807;48.024;11.726;2022-07-23T02:16:08;4.73;;;3.27;;
9536;SDS011;4807;48.024;11.726;2022-07-23T02:19:16;4.40;;;4.10;;
9536;SDS011;4807;48.024;11.726;2022-07-23T02:22:25;5.37;;;5.00;;
9536;SDS011;4807;48.024;11.726;2022-07-23T02:25:34;6.17;;;5.67;;
9536;SDS011;4807;48.024;11.726;2022-07-23T02:28:43;8.70;;;8.23;;
9536;SDS011;4807;48.024;11.726;2022-07-23T02:31:52;126.77;;;122.47;;
9536;SDS011;4807;48.024;11.726;2022-07-23T02:35:01;91.00;;;87.73;;
9536;SDS011;4807;48.024;11.726;2022-07-23T02:38:11;42.13;;;40.53;;
9536;SDS011;4807;48.024;11.726;2022-07-23T02:41:20;67.60;;;65.10;;
9536;SDS011;4807;48.024;11.726;2022-07-23T02:44:29;107.87;;;104.07;;
9536;SDS011;4807;48.024;11.726;2022-07-23T02:47:40;216.03;;;209.43;;
9536;SDS011;4807;48.024;11.726;2022-07-23T02:50:49;590.00;;;574.20;;
9536;SDS011;4807;48.024;11.726;2022-07-23T02:54:05;1999.90;;;999.90;;
9536;SDS011;4807;48.024;11.726;2022-07-23T02:57:14;1999.90;;;999.90;;
9536;SDS011;4807;48.024;11.726;2022-07-23T03:00:24;1999.90;;;999.90;;
9536;SDS011;4807;48.024;11.726;2022-07-23T03:03:36;1999.90;;;999.90;;
9536;SDS011;4807;48.024;11.726;2022-07-23T03:06:45;1999.90;;;999.90;;
9536;SDS011;4807;48.024;11.726;2022-07-23T03:09:53;1999.90;;;999.90;;
9536;SDS011;4807;48.024;11.726;2022-07-23T03:13:02;1999.90;;;999.90;;
9536;SDS011;4807;48.024;11.726;2022-07-23T03:16:11;1999.90;;;999.90;;
9536;SDS011;4807;48.024;11.726;2022-07-23T03:19:22;1999.90;;;999.90;;
9536;SDS011;4807;48.024;11.726;2022-07-23T03:22:30;1999.90;;;999.90;;
9536;SDS011;4807;48.024;11.726;2022-07-23T03:25:39;1999.90;;;999.90;;
9536;SDS011;4807;48.024;11.726;2022-07-23T03:28:47;1999.90;;;999.90;;
9536;SDS011;4807;48.024;11.726;2022-07-23T03:31:57;1999.90;;;999.90;;
9536;SDS011;4807;48.024;11.726;2022-07-23T03:35:05;1999.90;;;999.90;;
9536;SDS011;4807;48.024;11.726;2022-07-23T03:38:21;1999.90;;;999.90;;
9536;SDS011;4807;48.024;11.726;2022-07-23T03:41:29;1999.90;;;999.90;;
9536;SDS011;4807;48.024;11.726;2022-07-23T03:44:38;1999.90;;;999.90;;
9536;SDS011;4807;48.024;11.726;2022-07-23T03:47:48;1999.90;;;999.90;;
9536;SDS011;4807;48.024;11.726;2022-07-23T03:50:56;1999.90;;;999.90;;
9536;SDS011;4807;48.024;11.726;2022-07-23T03:54:04;1999.90;;;999.90;;
9536;SDS011;4807;48.024;11.726;2022-07-23T03:57:13;1999.90;;;999.90;;
9536;SDS011;4807;48.024;11.726;2022-07-23T04:00:21;1999.90;;;999.90;;
9536;SDS011;4807;48.024;11.726;2022-07-23T04:03:31;1999.90;;;999.90;;
9536;SDS011;4807;48.024;11.726;2022-07-23T04:06:40;1999.90;;;999.90;;
9536;SDS011;4807;48.024;11.726;2022-07-23T04:09:49;1999.90;;;999.90;;
9536;SDS011;4807;48.024;11.726;2022-07-23T04:12:57;1999.90;;;999.90;;
9536;SDS011;4807;48.024;11.726;2022-07-23T04:16:06;1999.90;;;999.90;;
9536;SDS011;4807;48.024;11.726;2022-07-23T04:19:16;1999.90;;;999.90;;
9536;SDS011;4807;48.024;11.726;2022-07-23T04:22:38;1999.90;;;999.90;;
9536;SDS011;4807;48.024;11.726;2022-07-23T04:25:47;1999.90;;;999.90;;
9536;SDS011;4807;48.024;11.726;2022-07-23T04:28:56;1999.90;;;999.90;;
9536;SDS011;4807;48.024;11.726;2022-07-23T04:32:05;1999.90;;;999.90;;
9536;SDS011;4807;48.024;11.726;2022-07-23T04:35:16;1999.90;;;999.90;;
9536;SDS011;4807;48.024;11.726;2022-07-23T04:38:25;1999.90;;;999.90;;
9536;SDS011;4807;48.024;11.726;2022-07-23T04:41:38;1999.90;;;999.90;;
9536;SDS011;4807;48.024;11.726;2022-07-23T04:44:48;1999.90;;;999.90;;
9536;SDS011;4807;48.024;11.726;2022-07-23T04:47:58;1999.90;;;999.90;;
9536;SDS011;4807;48.024;11.726;2022-07-23T04:51:09;1999.90;;;999.90;;
9536;SDS011;4807;48.024;11.726;2022-07-23T04:54:18;1999.90;;;999.90;;
9536;SDS011;4807;48.024;11.726;2022-07-23T04:57:27;1999.90;;;999.90;;
9536;SDS011;4807;48.024;11.726;2022-07-23T05:00:35;1999.90;;;999.90;;
9536;SDS011;4807;48.024;11.726;2022-07-23T05:03:43;1999.90;;;999.90;;
9536;SDS011;4807;48.024;11.726;2022-07-23T05:06:54;1999.90;;;999.90;;
9536;SDS011;4807;48.024;11.726;2022-07-23T05:10:03;1999.90;;;999.90;;
9536;SDS011;4807;48.024;11.726;2022-07-23T05:13:13;1999.90;;;999.90;;
9536;SDS011;4807;48.024;11.726;2022-07-23T05:16:23;1999.90;;;999.90;;
9536;SDS011;4807;48.024;11.726;2022-07-23T05:19:36;1999.90;;;999.90;;
9536;SDS011;4807;48.024;11.726;2022-07-23T05:22:46;1999.90;;;999.90;;
9536;SDS011;4807;48.024;11.726;2022-07-23T05:25:54;1999.90;;;999.90;;
9536;SDS011;4807;48.024;11.726;2022-07-23T05:29:07;1999.90;;;999.90;;
9536;SDS011;4807;48.024;11.726;2022-07-23T05:32:16;1999.90;;;999.90;;
9536;SDS011;4807;48.024;11.726;2022-07-23T05:35:33;1999.90;;;999.90;;
9536;SDS011;4807;48.024;11.726;2022-07-23T05:39:01;1999.90;;;999.90;;
9536;SDS011;4807;48.024;11.726;2022-07-23T05:42:14;1999.90;;;999.90;;
9536;SDS011;4807;48.024;11.726;2022-07-23T05:45:22;1999.90;;;999.90;;
9536;SDS011;4807;48.024;11.726;2022-07-23T05:48:31;1999.90;;;999.90;;
9536;SDS011;4807;48.024;11.726;2022-07-23T05:51:47;1999.90;;;999.90;;
9536;SDS011;4807;48.024;11.726;2022-07-23T05:55:04;1999.90;;;999.90;;
9536;SDS011;4807;48.024;11.726;2022-07-23T05:58:21;1999.90;;;999.90;;
9536;SDS011;4807;48.024;11.726;2022-07-23T06:01:32;1999.90;;;999.90;;
9536;SDS011;4807;48.024;11.726;2022-07-23T06:04:46;1999.90;;;999.90;;
9536;SDS011;4807;48.024;11.726;2022-07-23T06:08:03;1999.90;;;999.90;;
9536;SDS011;4807;48.024;11.726;2022-07-23T06:11:13;1999.90;;;999.90;;
9536;SDS011;4807;48.024;11.726;2022-07-23T06:14:21;1999.90;;;999.90;;
9536;SDS011;4807;48.024;11.726;2022-07-23T06:17:33;1999.90;;;999.90;;
9536;SDS011;4807;48.024;11.726;2022-07-23T06:20:43;1999.90;;;999.90;;
9536;SDS011;4807;48.024;11.726;2022-07-23T06:23:56;1999.90;;;999.90;;
9536;SDS011;4807;48.024;11.726;2022-07-23T06:27:09;1999.90;;;999.90;;
9536;SDS011;4807;48.024;11.726;2022-07-23T06:30:18;1999.90;;;999.90;;
9536;SDS011;4807;48.024;11.726;2022-07-23T06:33:26;1999.90;;;999.90;;
9536;SDS011;4807;48.024;11.726;2022-07-23T06:36:35;1999.90;;;999.90;;
9536;SDS011;4807;48.024;11.726;2022-07-23T06:39:45;1999.90;;;999.90;;
9536;SDS011;4807;48.024;11.726;2022-07-23T06:42:55;1999.90;;;999.90;;
9536;SDS011;4807;48.024;11.726;2022-07-23T06:46:06;1999.90;;;999.90;;
9536;SDS011;4807;48.024;11.726;2022-07-23T06:49:14;1999.90;;;999.90;;
9536;SDS011;4807;48.024;11.726;2022-07-23T06:52:22;1999.90;;;999.90;;
9536;SDS011;4807;48.024;11.726;2022-07-23T06:55:32;1999.90;;;999.90;;
9536;SDS011;4807;48.024;11.726;2022-07-23T06:58:46;1999.90;;;999.90;;
9536;SDS011;4807;48.024;11.726;2022-07-23T07:01:54;1999.90;;;999.90;;
9536;SDS011;4807;48.024;11.726;2022-07-23T07:05:05;1999.90;;;999.90;;
9536;SDS011;4807;48.024;11.726;2022-07-23T07:08:14;1999.90;;;999.90;;
9536;SDS011;4807;48.024;11.726;2022-07-23T07:11:23;1999.90;;;999.90;;
9536;SDS011;4807;48.024;11.726;2022-07-23T07:14:35;1999.90;;;999.90;;
9536;SDS011;4807;48.024;11.726;2022-07-23T07:17:44;1999.90;;;999.90;;
9536;SDS011;4807;48.024;11.726;2022-07-23T07:20:52;1999.90;;;999.90;;
9536;SDS011;4807;48.024;11.726;2022-07-23T07:24:02;1999.90;;;999.90;;
9536;SDS011;4807;48.024;11.726;2022-07-23T07:27:12;1999.90;;;999.90;;
9536;SDS011;4807;48.024;11.726;2022-07-23T07:30:22;1999.90;;;999.90;;
9536;SDS011;4807;48.024;11.726;2022-07-23T07:33:37;1999.90;;;999.90;;
9536;SDS011;4807;48.024;11.726;2022-07-23T07:36:47;1999.90;;;999.90;;
9536;SDS011;4807;48.024;11.726;2022-07-23T07:39:56;1999.90;;;999.90;;
9536;SDS011;4807;48.024;11.726;2022-07-23T07:43:04;1999.90;;;999.90;;
9536;SDS011;4807;48.024;11.726;2022-07-23T07:46:14;1999.90;;;999.90;;
9536;SDS011;4807;48.024;11.726;2022-07-23T07:49:23;1999.90;;;999.90;;
9536;SDS011;4807;48.024;11.726;2022-07-23T07:52:38;1999.90;;;999.90;;
9536;SDS011;4807;48.024;11.726;2022-07-23T07:55:47;1999.90;;;999.90;;
9536;SDS011;4807;48.024;11.726;2022-07-23T07:58:57;1999.90;;;999.90;;
9536;SDS011;4807;48.024;11.726;2022-07-23T08:02:08;1999.90;;;999.90;;
9536;SDS011;4807;48.024;11.726;2022-07-23T08:05:18;1999.90;;;999.90;;
9536;SDS011;4807;48.024;11.726;2022-07-23T08:08:33;1999.90;;;999.90;;
9536;SDS011;4807;48.024;11.726;2022-07-23T08:11:41;1999.90;;;999.90;;
9536;SDS011;4807;48.024;11.726;2022-07-23T08:14:50;1999.90;;;999.90;;
9536;SDS011;4807;48.024;11.726;2022-07-23T08:18:00;1999.90;;;999.90;;
9536;SDS011;4807;48.024;11.726;2022-07-23T08:21:09;1999.90;;;999.90;;
9536;SDS011;4807;48.024;11.726;2022-07-23T08:24:17;1999.90;;;999.90;;
9536;SDS011;4807;48.024;11.726;2022-07-23T08:27:26;1999.90;;;999.90;;
9536;SDS011;4807;48.024;11.726;2022-07-23T08:30:35;1999.90;;;999.90;;
9536;SDS011;4807;48.024;11.726;2022-07-23T08:33:46;1999.90;;;999.90;;
9536;SDS011;4807;48.024;11.726;2022-07-23T08:36:55;1999.90;;;999.90;;
9536;SDS011;4807;48.024;11.726;2022-07-23T08:40:03;1999.90;;;999.90;;
9536;SDS011;4807;48.024;11.726;2022-07-23T08:43:14;1999.90;;;999.90;;
9536;SDS011;4807;48.024;11.726;2022-07-23T08:46:26;1999.90;;;999.90;;
9536;SDS011;4807;48.024;11.726;2022-07-23T08:49:37;1999.90;;;999.90;;
9536;SDS011;4807;48.024;11.726;2022-07-23T08:52:48;1999.90;;;999.90;;
9536;SDS011;4807;48.024;11.726;2022-07-23T08:55:58;1999.90;;;999.90;;
9536;SDS011;4807;48.024;11.726;2022-07-23T08:59:11;1999.90;;;999.90;;
9536;SDS011;4807;48.024;11.726;2022-07-23T09:02:20;1999.90;;;999.90;;
9536;SDS011;4807;48.024;11.726;2022-07-23T09:05:31;1999.90;;;999.90;;
9536;SDS011;4807;48.024;11.726;2022-07-23T09:08:40;1999.90;;;999.90;;
9536;SDS011;4807;48.024;11.726;2022-07-23T09:12:01;1999.90;;;999.90;;
9536;SDS011;4807;48.024;11.726;2022-07-23T09:15:12;1999.90;;;999.90;;
9536;SDS011;4807;48.024;11.726;2022-07-23T09:18:28;1999.90;;;999.90;;
9536;SDS011;4807;48.024;11.726;2022-07-23T09:21:41;1999.90;;;999.90;;
9536;SDS011;4807;48.024;11.726;2022-07-23T09:25:03;1999.90;;;999.90;;
9536;SDS011;4807;48.024;11.726;2022-07-23T09:28:15;1999.90;;;999.90;;
9536;SDS011;4807;48.024;11.726;2022-07-23T09:31:24;1999.90;;;999.90;;
9536;SDS011;4807;48.024;11.726;2022-07-23T09:34:39;1999.90;;;999.90;;
9536;SDS011;4807;48.024;11.726;2022-07-23T09:38:02;1999.90;;;999.90;;
9536;SDS011;4807;48.024;11.726;2022-07-23T09:41:11;1999.90;;;999.90;;
9536;SDS011;4807;48.024;11.726;2022-07-23T09:44:20;1999.90;;;999.90;;
9536;SDS011;4807;48.024;11.726;2022-07-23T09:47:34;1999.90;;;999.90;;
9536;SDS011;4807;48.024;11.726;2022-07-23T09:50:43;1999.90;;;999.90;;
9536;SDS011;4807;48.024;11.726;2022-07-23T09:53:53;1999.90;;;999.90;;
9536;SDS011;4807;48.024;11.726;2022-07-23T09:57:03;1999.90;;;999.90;;
9536;SDS011;4807;48.024;11.726;2022-07-23T10:00:15;1999.90;;;999.90;;
9536;SDS011;4807;48.024;11.726;2022-07-23T10:03:24;1999.90;;;999.90;;
9536;SDS011;4807;48.024;11.726;2022-07-23T10:06:52;1999.90;;;999.90;;
9536;SDS011;4807;48.024;11.726;2022-07-23T10:10:23;1999.90;;;999.90;;
9536;SDS011;4807;48.024;11.726;2022-07-23T10:14:03;1999.90;;;999.90;;
9536;SDS011;4807;48.024;11.726;2022-07-23T10:17:31;1999.90;;;999.90;;
9536;SDS011;4807;48.024;11.726;2022-07-23T10:20:40;1999.90;;;999.90;;
9536;SDS011;4807;48.024;11.726;2022-07-23T10:23:51;1999.90;;;999.90;;
9536;SDS011;4807;48.024;11.726;2022-07-23T10:27:25;1999.90;;;999.90;;
9536;SDS011;4807;48.024;11.726;2022-07-23T10:30:57;1999.90;;;999.90;;
9536;SDS011;4807;48.024;11.726;2022-07-23T10:34:38;1999.90;;;999.90;;
9536;SDS011;4807;48.024;11.726;2022-07-23T10:38:01;1999.90;;;999.90;;
9536;SDS011;4807;48.024;11.726;2022-07-23T10:41:30;1999.90;;;999.90;;
9536;SDS011;4807;48.024;11.726;2022-07-23T10:44:42;1999.90;;;999.90;;
9536;SDS011;4807;48.024;11.726;2022-07-23T10:47:52;1999.90;;;999.90;;
9536;SDS011;4807;48.024;11.726;2022-07-23T10:51:08;1999.90;;;999.90;;
9536;SDS011;4807;48.024;11.726;2022-07-23T10:54:21;1999.90;;;999.90;;
9536;SDS011;4807;48.024;11.726;2022-07-23T10:57:29;1999.90;;;999.90;;
9536;SDS011;4807;48.024;11.726;2022-07-23T11:00:39;1999.90;;;999.90;;
9536;SDS011;4807;48.024;11.726;2022-07-23T11:03:55;1999.90;;;999.90;;
9536;SDS011;4807;48.024;11.726;2022-07-23T11:07:06;1999.90;;;999.90;;
9536;SDS011;4807;48.024;11.726;2022-07-23T11:10:31;1999.90;;;999.90;;
9536;SDS011;4807;48.024;11.726;2022-07-23T11:13:45;1999.90;;;999.90;;
9536;SDS011;4807;48.024;11.726;2022-07-23T11:16:58;1999.90;;;999.90;;
9536;SDS011;4807;48.024;11.726;2022-07-23T11:20:13;1999.90;;;999.90;;
9536;SDS011;4807;48.024;11.726;2022-07-23T11:23:26;1999.90;;;999.90;;
9536;SDS011;4807;48.024;11.726;2022-07-23T11:27:10;1999.90;;;999.90;;
9536;SDS011;4807;48.024;11.726;2022-07-23T11:33:49;1999.90;;;999.90;;
9536;SDS011;4807;48.024;11.726;2022-07-23T11:37:38;1999.90;;;999.90;;
9536;SDS011;4807;48.024;11.726;2022-07-23T11:40:48;1999.90;;;999.90;;
9536;SDS011;4807;48.024;11.726;2022-07-23T11:43:58;1999.90;;;999.90;;
9536;SDS011;4807;48.024;11.726;2022-07-23T11:47:08;1999.90;;;999.90;;
9536;SDS011;4807;48.024;11.726;2022-07-23T11:50:22;1999.90;;;999.90;;
9536;SDS011;4807;48.024;11.726;2022-07-23T11:53:33;1999.90;;;999.90;;
9536;SDS011;4807;48.024;11.726;2022-07-23T11:56:54;1999.90;;;999.90;;
9536;SDS011;4807;48.024;11.726;2022-07-23T12:00:04;1999.90;;;999.90;;
9536;SDS011;4807;48.024;11.726;2022-07-23T12:03:17;1999.90;;;999.90;;
9536;SDS011;4807;48.024;11.726;2022-07-23T12:06:27;1999.90;;;999.90;;
9536;SDS011;4807;48.024;11.726;2022-07-23T12:09:36;1999.90;;;999.90;;
9536;SDS011;4807;48.024;11.726;2022-07-23T12:12:46;1999.90;;;999.90;;
9536;SDS011;4807;48.024;11.726;2022-07-23T12:15:58;1999.90;;;999.90;;
9536;SDS011;4807;48.024;11.726;2022-07-23T12:19:07;1999.90;;;999.90;;
9536;SDS011;4807;48.024;11.726;2022-07-23T12:22:17;1999.90;;;999.90;;
9536;SDS011;4807;48.024;11.726;2022-07-23T12:25:26;1999.90;;;999.90;;
9536;SDS011;4807;48.024;11.726;2022-07-23T12:28:37;1999.90;;;999.90;;
9536;SDS011;4807;48.024;11.726;2022-07-23T12:31:47;1999.90;;;999.90;;
9536;SDS011;4807;48.024;11.726;2022-07-23T12:35:05;1999.90;;;999.90;;
9536;SDS011;4807;48.024;11.726;2022-07-23T12:38:20;1999.90;;;999.90;;
9536;SDS011;4807;48.024;11.726;2022-07-23T12:45:11;1999.90;;;999.90;;
9536;SDS011;4807;48.024;11.726;2022-07-23T12:55:09;1999.90;;;999.90;;
9536;SDS011;4807;48.024;11.726;2022-07-23T12:59:22;1999.90;;;999.90;;
9536;SDS011;4807;48.024;11.726;2022-07-23T13:02:44;1999.90;;;999.90;;
9536;SDS011;4807;48.024;11.726;2022-07-23T13:05:54;1999.90;;;999.90;;
9536;SDS011;4807;48.024;11.726;2022-07-23T13:09:04;1999.90;;;999.90;;
9536;SDS011;4807;48.024;11.726;2022-07-23T13:12:18;1999.90;;;999.90;;
9536;SDS011;4807;48.024;11.726;2022-07-23T13:15:27;1999.90;;;999.90;;
9536;SDS011;4807;48.024;11.726;2022-07-23T13:18:37;1999.90;;;999.90;;
9536;SDS011;4807;48.024;11.726;2022-07-23T13:21:46;1999.90;;;999.90;;
9536;SDS011;4807;48.024;11.726;2022-07-23T13:24:54;1999.90;;;999.90;;
9536;SDS011;4807;48.024;11.726;2022-07-23T13:28:04;1999.90;;;999.90;;
9536;SDS011;4807;48.024;11.726;2022-07-23T13:31:15;1999.90;;;999.90;;
9536;SDS011;4807;48.024;11.726;2022-07-23T13:34:24;1999.90;;;999.90;;
9536;SDS011;4807;48.024;11.726;2022-07-23T13:37:33;1999.90;;;999.90;;
9536;SDS011;4807;48.024;11.726;2022-07-23T13:40:42;1999.90;;;999.90;;
9536;SDS011;4807;48.024;11.726;2022-07-23T13:43:57;1999.90;;;999.90;;
9536;SDS011;4807;48.024;11.726;2022-07-23T13:47:08;1999.90;;;999.90;;
9536;SDS011;4807;48.024;11.726;2022-07-23T13:50:17;1999.90;;;999.90;;
9536;SDS011;4807;48.024;11.726;2022-07-23T13:53:28;1999.90;;;999.90;;
9536;SDS011;4807;48.024;11.726;2022-07-23T13:56:36;1999.90;;;999.90;;
9536;SDS011;4807;48.024;11.726;2022-07-23T13:59:47;1999.90;;;999.90;;
9536;SDS011;4807;48.024;11.726;2022-07-23T14:02:56;1999.90;;;999.90;;
9536;SDS011;4807;48.024;11.726;2022-07-23T14:06:06;1999.90;;;999.90;;
9536;SDS011;4807;48.024;11.726;2022-07-23T14:09:23;1999.90;;;999.90;;
9536;SDS011;4807;48.024;11.726;2022-07-23T14:12:32;1999.90;;;999.90;;
9536;SDS011;4807;48.024;11.726;2022-07-23T14:15:43;1999.90;;;999.90;;
9536;SDS011;4807;48.024;11.726;2022-07-23T14:18:53;1999.90;;;999.90;;
9536;SDS011;4807;48.024;11.726;2022-07-23T14:22:02;1999.90;;;999.90;;
9536;SDS011;4807;48.024;11.726;2022-07-23T14:25:12;1999.90;;;999.90;;
9536;SDS011;4807;48.024;11.726;2022-07-23T14:28:20;1999.90;;;999.90;;
9536;SDS011;4807;48.024;11.726;2022-07-23T14:31:30;1999.90;;;999.90;;
9536;SDS011;4807;48.024;11.726;2022-07-23T14:34:42;1999.90;;;999.90;;
9536;SDS011;4807;48.024;11.726;2022-07-23T14:37:59;1999.90;;;999.90;;
9536;SDS011;4807;48.024;11.726;2022-07-23T14:41:10;1999.90;;;999.90;;
9536;SDS011;4807;48.024;11.726;2022-07-23T14:44:22;1999.90;;;999.90;;
9536;SDS011;4807;48.024;11.726;2022-07-23T14:47:32;1999.90;;;999.90;;
9536;SDS011;4807;48.024;11.726;2022-07-23T14:50:41;1999.90;;;999.90;;
9536;SDS011;4807;48.024;11.726;2022-07-23T14:53:49;1999.90;;;999.90;;
9536;SDS011;4807;48.024;11.726;2022-07-23T14:56:58;1999.90;;;999.90;;
9536;SDS011;4807;48.024;11.726;2022-07-23T15:00:09;1999.90;;;999.90;;
9536;SDS011;4807;48.024;11.726;2022-07-23T15:03:23;1999.90;;;999.90;;
9536;SDS011;4807;48.024;11.726;2022-07-23T15:06:48;1999.90;;;999.90;;
9536;SDS011;4807;48.024;11.726;2022-07-23T15:09:57;1999.90;;;999.90;;
9536;SDS011;4807;48.024;11.726;2022-07-23T15:13:05;1999.90;;;999.90;;
9536;SDS011;4807;48.024;11.726;2022-07-23T15:16:14;1999.90;;;999.90;;
9536;SDS011;4807;48.024;11.726;2022-07-23T15:19:24;1999.90;;;999.90;;
9536;SDS011;4807;48.024;11.726;2022-07-23T15:22:36;1999.90;;;999.90;;
9536;SDS011;4807;48.024;11.726;2022-07-23T15:25:44;1999.90;;;999.90;;
9536;SDS011;4807;48.024;11.726;2022-07-23T15:28:56;1999.90;;;999.90;;
9536;SDS011;4807;48.024;11.726;2022-07-23T15:32:09;1999.90;;;999.90;;
9536;SDS011;4807;48.024;11.726;2022-07-23T15:35:20;1999.90;;;999.90;;
9536;SDS011;4807;48.024;11.726;2022-07-23T15:38:30;1999.90;;;999.90;;
9536;SDS011;4807;48.024;11.726;2022-07-23T15:41:39;1999.90;;;999.90;;
9536;SDS011;4807;48.024;11.726;2022-07-23T15:44:49;1999.90;;;999.90;;
9536;SDS011;4807;48.024;11.726;2022-07-23T15:47:58;1999.90;;;999.90;;
9536;SDS011;4807;48.024;11.726;2022-07-23T15:51:10;1999.90;;;999.90;;
9536;SDS011;4807;48.024;11.726;2022-07-23T15:54:19;1999.90;;;999.90;;
9536;SDS011;4807;48.024;11.726;2022-07-23T15:57:27;1999.90;;;999.90;;
9536;SDS011;4807;48.024;11.726;2022-07-23T16:00:36;1999.90;;;999.90;;
9536;SDS011;4807;48.024;11.726;2022-07-23T16:03:44;1999.90;;;999.90;;
9536;SDS011;4807;48.024;11.726;2022-07-23T16:06:55;1999.90;;;999.90;;
9536;SDS011;4807;48.024;11.726;2022-07-23T16:10:05;1999.90;;;999.90;;
9536;SDS011;4807;48.024;11.726;2022-07-23T16:13:16;1999.90;;;999.90;;
9536;SDS011;4807;48.024;11.726;2022-07-23T16:16:25;1999.90;;;999.90;;
9536;SDS011;4807;48.024;11.726;2022-07-23T16:19:34;1999.90;;;999.90;;
9536;SDS011;4807;48.024;11.726;2022-07-23T16:22:44;1999.90;;;999.90;;
9536;SDS011;4807;48.024;11.726;2022-07-23T16:25:52;1999.90;;;999.90;;
9536;SDS011;4807;48.024;11.726;2022-07-23T16:29:01;1999.90;;;999.90;;
9536;SDS011;4807;48.024;11.726;2022-07-23T16:32:10;1999.90;;;999.90;;
9536;SDS011;4807;48.024;11.726;2022-07-23T16:35:19;1999.90;;;999.90;;
9536;SDS011;4807;48.024;11.726;2022-07-23T16:38:31;1999.90;;;999.90;;
9536;SDS011;4807;48.024;11.726;2022-07-23T16:41:41;1999.90;;;999.90;;
9536;SDS011;4807;48.024;11.726;2022-07-23T16:44:50;1999.90;;;999.90;;
9536;SDS011;4807;48.024;11.726;2022-07-23T16:47:58;1999.90;;;999.90;;
9536;SDS011;4807;48.024;11.726;2022-07-23T16:51:07;1999.90;;;999.90;;
9536;SDS011;4807;48.024;11.726;2022-07-23T16:54:17;1999.90;;;999.90;;
9536;SDS011;4807;48.024;11.726;2022-07-23T16:57:27;1999.90;;;999.90;;
9536;SDS011;4807;48.024;11.726;2022-07-23T17:00:35;1999.90;;;999.90;;
9536;SDS011;4807;48.024;11.726;2022-07-23T17:03:45;1999.90;;;999.90;;
9536;SDS011;4807;48.024;11.726;2022-07-23T17:06:53;1999.90;;;999.90;;
9536;SDS011;4807;48.024;11.726;2022-07-23T17:10:06;1999.90;;;999.90;;
9536;SDS011;4807;48.024;11.726;2022-07-23T17:13:17;1999.90;;;999.90;;
9536;SDS011;4807;48.024;11.726;2022-07-23T17:16:26;1999.90;;;999.90;;
9536;SDS011;4807;48.024;11.726;2022-07-23T17:19:35;1999.90;;;999.90;;
9536;SDS011;4807;48.024;11.726;2022-07-23T17:22:43;1999.90;;;999.90;;
9536;SDS011;4807;48.024;11.726;2022-07-23T17:25:53;1999.90;;;999.90;;
9536;SDS011;4807;48.024;11.726;2022-07-23T17:29:01;1999.90;;;999.90;;
9536;SDS011;4807;48.024;11.726;2022-07-23T17:32:11;1999.90;;;999.90;;
9536;SDS011;4807;48.024;11.726;2022-07-23T17:35:19;1999.90;;;999.90;;
9536;SDS011;4807;48.024;11.726;2022-07-23T17:38:28;1999.90;;;999.90;;
9536;SDS011;4807;48.024;11.726;2022-07-23T17:41:38;1999.90;;;999.90;;
9536;SDS011;4807;48.024;11.726;2022-07-23T17:44:53;1999.90;;;999.90;;
9536;SDS011;4807;48.024;11.726;2022-07-23T17:48:01;1999.90;;;999.90;;
9536;SDS011;4807;48.024;11.726;2022-07-23T17:51:10;1999.90;;;999.90;;
9536;SDS011;4807;48.024;11.726;2022-07-23T17:54:18;1999.90;;;999.90;;
9536;SDS011;4807;48.024;11.726;2022-07-23T17:57:28;1999.90;;;999.90;;
9536;SDS011;4807;48.024;11.726;2022-07-23T18:00:36;1999.90;;;999.90;;
9536;SDS011;4807;48.024;11.726;2022-07-23T18:03:46;1999.90;;;999.90;;
9536;SDS011;4807;48.024;11.726;2022-07-23T18:06:56;1999.90;;;999.90;;
9536;SDS011;4807;48.024;11.726;2022-07-23T18:10:05;1999.90;;;999.90;;
9536;SDS011;4807;48.024;11.726;2022-07-23T18:13:16;1999.90;;;999.90;;
9536;SDS011;4807;48.024;11.726;2022-07-23T18:16:24;1999.90;;;999.90;;
9536;SDS011;4807;48.024;11.726;2022-07-23T18:19:33;1999.90;;;999.90;;
9536;SDS011;4807;48.024;11.726;2022-07-23T18:22:41;1999.90;;;999.90;;
9536;SDS011;4807;48.024;11.726;2022-07-23T18:25:50;1999.90;;;999.90;;
9536;SDS011;4807;48.024;11.726;2022-07-23T18:29:00;1999.90;;;999.90;;
9536;SDS011;4807;48.024;11.726;2022-07-23T18:32:08;1999.90;;;999.90;;